createdAt,value
2018-07-16T00:00:54.822Z,7.57
2018-07-16T00:03:29.381Z,7.50
2018-07-16T00:06:04.297Z,7.27
2018-07-16T00:08:39.150Z,7.30
2018-07-16T00:11:14.115Z,6.67
2018-07-16T00:13:48.905Z,7.90
2018-07-16T00:16:23.648Z,6.93
2018-07-16T00:18:58.789Z,7.23
2018-07-16T00:21:33.893Z,6.70
2018-07-16T00:24:08.358Z,7.47
2018-07-16T00:26:43.411Z,7.10
2018-07-16T00:29:18.221Z,7.37
2018-07-16T00:31:53.001Z,7.57
2018-07-16T00:34:27.874Z,6.40
2018-07-16T00:37:02.593Z,6.20
2018-07-16T00:39:37.025Z,7.73
2018-07-16T00:42:11.842Z,7.33
2018-07-16T00:44:46.922Z,7.00
2018-07-16T00:47:21.227Z,7.80
2018-07-16T00:49:56.465Z,7.87
2018-07-16T00:52:30.826Z,6.47
2018-07-16T00:55:06.208Z,6.00
2018-07-16T00:57:40.665Z,7.10
2018-07-16T01:00:15.178Z,7.87
2018-07-16T01:02:49.903Z,6.50
2018-07-16T01:05:24.648Z,7.20
2018-07-16T01:07:59.485Z,7.07
2018-07-16T01:10:34.205Z,6.20
2018-07-16T01:13:09.083Z,6.40
2018-07-16T01:15:44.053Z,7.57
2018-07-16T01:18:18.810Z,6.40
2018-07-16T01:20:53.708Z,7.30
2018-07-16T01:23:28.493Z,6.80
2018-07-16T01:26:03.117Z,6.60
2018-07-16T01:28:38.021Z,7.17
2018-07-16T01:31:12.700Z,7.07
2018-07-16T01:33:47.832Z,6.60
2018-07-16T01:36:22.948Z,7.53
2018-07-16T01:38:58.234Z,7.10
2018-07-16T01:41:32.544Z,6.70
2018-07-16T01:44:07.370Z,7.73
2018-07-16T01:46:42.334Z,7.20
2018-07-16T01:49:17.081Z,7.03
2018-07-16T01:51:51.792Z,7.70
2018-07-16T01:54:26.283Z,6.70
2018-07-16T01:57:00.993Z,5.67
2018-07-16T01:59:35.757Z,7.10
2018-07-16T02:02:10.873Z,7.10
2018-07-16T02:04:45.198Z,6.80
2018-07-16T02:07:19.927Z,6.03
2018-07-16T02:09:55.066Z,5.93
2018-07-16T02:12:29.502Z,6.30
2018-07-16T02:15:04.270Z,6.13
2018-07-16T02:17:39.095Z,7.23
2018-07-16T02:20:13.758Z,6.23
2018-07-16T02:22:48.546Z,5.80
2018-07-16T02:25:23.601Z,7.23
2018-07-16T02:27:58.019Z,6.47
2018-07-16T02:30:32.386Z,5.87
2018-07-16T02:33:07.970Z,5.60
2018-07-16T02:35:42.808Z,7.13
2018-07-16T02:38:16.886Z,5.13
2018-07-16T02:40:51.550Z,6.23
2018-07-16T02:43:26.451Z,5.27
2018-07-16T02:46:01.063Z,5.27
2018-07-16T02:48:35.677Z,5.70
2018-07-16T02:51:10.818Z,5.73
2018-07-16T02:53:45.183Z,5.50
2018-07-16T02:56:20.054Z,6.63
2018-07-16T02:58:54.837Z,5.73
2018-07-16T03:01:29.621Z,5.53
2018-07-16T03:04:04.222Z,5.10
2018-07-16T03:06:38.938Z,5.27
2018-07-16T03:09:13.802Z,5.40
2018-07-16T03:11:48.934Z,5.90
2018-07-16T03:14:23.135Z,6.27
2018-07-16T03:16:58.172Z,4.87
2018-07-16T03:19:32.551Z,5.70
2018-07-16T03:22:07.224Z,5.47
2018-07-16T03:24:41.726Z,5.80
2018-07-16T03:27:16.994Z,5.03
2018-07-16T03:29:51.211Z,5.03
2018-07-16T03:32:25.886Z,5.60
2018-07-16T03:35:00.661Z,5.10
2018-07-16T03:37:35.279Z,5.27
2018-07-16T03:40:10.047Z,5.67
2018-07-16T03:42:44.945Z,5.13
2018-07-16T03:45:19.753Z,6.77
2018-07-16T03:47:54.483Z,6.03
2018-07-16T03:50:29.384Z,5.77
2018-07-16T03:53:04.162Z,5.40
2018-07-16T03:55:38.858Z,6.10
2018-07-16T03:58:13.610Z,5.90
2018-07-16T04:00:48.513Z,5.00
2018-07-16T04:03:23.469Z,5.60
2018-07-16T04:05:57.840Z,5.97
2018-07-16T04:08:32.718Z,5.57
2018-07-16T04:11:07.529Z,5.10
2018-07-16T04:13:42.337Z,4.70
2018-07-16T04:16:17.162Z,5.43
2018-07-16T04:18:51.721Z,5.03
2018-07-16T04:21:26.436Z,5.10
2018-07-16T04:24:01.331Z,5.10
2018-07-16T04:26:36.146Z,5.10
2018-07-16T04:29:10.922Z,5.33
2018-07-16T04:31:45.616Z,5.00
2018-07-16T04:34:20.372Z,4.97
2018-07-16T04:36:55.134Z,4.50
2018-07-16T04:39:29.953Z,4.70
2018-07-16T04:42:05.101Z,4.63
2018-07-16T04:44:39.954Z,4.93
2018-07-16T04:47:14.523Z,4.67
2018-07-16T04:49:49.541Z,5.17
2018-07-16T04:52:23.997Z,3.93
2018-07-16T04:54:58.586Z,4.10
2018-07-16T04:57:33.558Z,5.30
2018-07-16T05:00:08.475Z,5.87
2018-07-16T05:02:43.214Z,4.57
2018-07-16T05:05:18.079Z,5.60
2018-07-16T05:07:53.454Z,4.87
2018-07-16T05:10:34.576Z,6.37
2018-07-16T05:13:09.686Z,5.60
2018-07-16T05:15:44.552Z,5.83
2018-07-16T05:18:19.446Z,5.20
2018-07-16T05:20:54.311Z,5.30
2018-07-16T05:23:29.261Z,4.93
2018-07-16T05:26:03.738Z,6.07
2018-07-16T05:28:38.768Z,6.80
2018-07-16T05:31:13.076Z,7.27
2018-07-16T05:33:47.861Z,6.50
2018-07-16T05:36:22.548Z,7.53
2018-07-16T05:38:57.296Z,6.60
2018-07-16T05:41:32.253Z,7.63
2018-07-16T05:44:06.701Z,7.60
2018-07-16T05:46:41.400Z,5.73
2018-07-16T05:49:16.665Z,8.07
2018-07-16T05:51:50.774Z,7.70
2018-07-16T05:54:25.744Z,8.17
2018-07-16T05:57:00.325Z,9.10
2018-07-16T05:59:35.256Z,9.30
2018-07-16T06:02:10.033Z,7.20
2018-07-16T06:04:44.820Z,8.70
2018-07-16T06:07:20.222Z,7.20
2018-07-16T06:09:55.177Z,7.50
2018-07-16T06:12:29.499Z,10.87
2018-07-16T06:15:04.711Z,8.00
2018-07-16T06:17:38.989Z,7.40
2018-07-16T06:20:13.753Z,10.43
2018-07-16T06:22:48.746Z,6.90
2018-07-16T06:25:23.596Z,7.37
2018-07-16T06:27:57.889Z,8.20
2018-07-16T06:30:32.895Z,8.70
2018-07-16T06:33:07.977Z,7.27
2018-07-16T06:35:42.673Z,8.07
2018-07-16T06:38:17.439Z,9.23
2018-07-16T06:40:52.298Z,7.57
2018-07-16T06:43:26.830Z,7.83
2018-07-16T06:46:01.560Z,8.80
2018-07-16T06:48:36.176Z,7.00
2018-07-16T06:51:11.108Z,5.90
2018-07-16T06:53:45.593Z,4.70
2018-07-16T06:56:20.341Z,5.70
2018-07-16T06:58:54.929Z,4.57
2018-07-16T07:01:29.974Z,5.70
2018-07-16T07:04:04.286Z,5.00
2018-07-16T07:06:38.903Z,5.60
2018-07-16T07:09:13.618Z,5.10
2018-07-16T07:11:48.876Z,5.30
2018-07-16T07:14:23.277Z,5.10
2018-07-16T07:16:58.266Z,5.20
2018-07-16T07:19:32.717Z,6.07
2018-07-16T07:22:07.815Z,6.10
2018-07-16T07:24:42.034Z,6.10
2018-07-16T07:27:16.993Z,5.67
2018-07-16T07:29:51.607Z,6.63
2018-07-16T07:32:26.412Z,6.40
2018-07-16T07:35:01.983Z,5.80
2018-07-16T07:37:37.267Z,6.03
2018-07-16T07:40:12.094Z,5.57
2018-07-16T07:42:46.700Z,5.93
2018-07-16T07:45:21.433Z,5.93
2018-07-16T07:47:56.147Z,7.33
2018-07-16T07:50:30.987Z,6.03
2018-07-16T07:53:06.081Z,5.90
2018-07-16T07:55:40.507Z,6.87
2018-07-16T07:58:15.235Z,5.40
2018-07-16T08:00:50.134Z,6.47
2018-07-16T08:03:25.053Z,5.87
2018-07-16T08:06:04.792Z,5.33
2018-07-16T08:08:39.519Z,5.63
2018-07-16T08:11:14.663Z,5.07
2018-07-16T08:13:49.361Z,4.60
2018-07-16T08:16:23.822Z,5.50
2018-07-16T08:18:58.652Z,5.37
2018-07-16T08:21:33.436Z,4.33
2018-07-16T08:24:08.193Z,4.70
2018-07-16T08:26:42.922Z,3.80
2018-07-16T08:29:17.652Z,4.73
2018-07-16T08:31:52.298Z,5.10
2018-07-16T08:34:27.118Z,4.97
2018-07-16T08:37:02.158Z,3.57
2018-07-16T08:39:36.382Z,4.00
2018-07-16T08:42:11.017Z,4.23
2018-07-16T08:44:46.141Z,3.97
2018-07-16T08:47:20.852Z,4.10
2018-07-16T08:49:55.794Z,3.73
2018-07-16T08:52:30.068Z,4.40
2018-07-16T08:55:04.768Z,4.33
2018-07-16T08:57:39.259Z,3.63
2018-07-16T09:00:13.981Z,3.90
2018-07-16T09:02:49.209Z,3.60
2018-07-16T09:05:23.338Z,3.50
2018-07-16T09:07:57.868Z,4.27
2018-07-16T09:10:32.394Z,3.43
2018-07-16T09:13:07.137Z,2.70
2018-07-16T09:15:42.004Z,2.87
2018-07-16T09:18:16.436Z,3.10
2018-07-16T09:20:51.120Z,2.70
2018-07-16T09:23:25.667Z,2.90
2018-07-16T09:26:00.362Z,3.03
2018-07-16T09:28:35.035Z,2.73
2018-07-16T09:31:09.946Z,3.07
2018-07-16T09:33:44.886Z,2.40
2018-07-16T09:36:19.766Z,3.27
2018-07-16T09:38:54.460Z,2.40
2018-07-16T09:41:29.130Z,3.20
2018-07-16T09:44:04.278Z,2.60
2018-07-16T09:46:38.688Z,3.13
2018-07-16T09:49:13.608Z,3.03
2018-07-16T09:51:48.474Z,2.60
2018-07-16T09:54:23.288Z,2.50
2018-07-16T09:56:58.222Z,2.70
2018-07-16T09:59:33.059Z,2.67
2018-07-16T10:02:13.594Z,2.50
2018-07-16T10:04:48.536Z,2.70
2018-07-16T10:07:23.211Z,2.93
2018-07-16T10:09:57.997Z,3.10
2018-07-16T10:12:32.507Z,2.70
2018-07-16T10:15:07.223Z,2.80
2018-07-16T10:17:41.822Z,2.83
2018-07-16T10:20:16.553Z,2.90
2018-07-16T10:22:51.046Z,2.50
2018-07-16T10:25:25.976Z,2.87
2018-07-16T10:28:00.644Z,3.00
2018-07-16T10:30:35.542Z,2.90
2018-07-16T10:33:10.285Z,3.13
2018-07-16T10:35:45.686Z,2.93
2018-07-16T10:38:20.432Z,2.30
2018-07-16T10:40:55.301Z,2.70
2018-07-16T10:43:30.009Z,2.70
2018-07-16T10:46:04.816Z,2.90
2018-07-16T10:48:39.487Z,2.50
2018-07-16T10:51:14.814Z,2.70
2018-07-16T10:53:49.613Z,2.07
2018-07-16T10:56:24.245Z,2.00
2018-07-16T10:58:58.766Z,1.83
2018-07-16T11:01:33.440Z,2.37
2018-07-16T11:04:08.576Z,2.37
2018-07-16T11:06:42.955Z,1.90
2018-07-16T11:09:17.562Z,2.77
2018-07-16T11:11:52.295Z,2.27
2018-07-16T11:14:27.079Z,2.70
2018-07-16T11:17:02.164Z,2.37
2018-07-16T11:19:36.696Z,2.83
2018-07-16T11:22:11.252Z,2.53
2018-07-16T11:24:45.795Z,2.60
2018-07-16T11:27:20.341Z,2.33
2018-07-16T11:29:55.216Z,2.23
2018-07-16T11:32:29.691Z,2.10
2018-07-16T11:35:04.815Z,2.10
2018-07-16T11:37:39.268Z,2.57
2018-07-16T11:40:13.955Z,2.27
2018-07-16T11:42:48.669Z,2.10
2018-07-16T11:45:23.502Z,2.40
2018-07-16T11:47:58.201Z,2.47
2018-07-16T11:50:33.097Z,2.53
2018-07-16T11:53:07.854Z,2.10
2018-07-16T11:55:42.707Z,2.20
2018-07-16T11:58:17.672Z,2.60
2018-07-16T12:00:52.739Z,2.10
2018-07-16T12:03:27.415Z,2.10
2018-07-16T12:06:06.570Z,2.40
2018-07-16T12:08:41.222Z,2.00
2018-07-16T12:11:16.427Z,2.60
2018-07-16T12:13:51.237Z,2.17
2018-07-16T12:16:25.760Z,2.30
2018-07-16T12:19:00.964Z,2.53
2018-07-16T12:21:35.774Z,2.40
2018-07-16T12:24:09.927Z,2.37
2018-07-16T12:26:44.939Z,2.27
2018-07-16T12:29:19.830Z,2.43
2018-07-16T12:31:54.406Z,2.47
2018-07-16T12:34:28.876Z,2.07
2018-07-16T12:37:03.648Z,2.50
2018-07-16T12:39:38.550Z,2.80
2018-07-16T12:42:12.782Z,2.90
2018-07-16T12:44:47.374Z,3.40
2018-07-16T12:47:21.967Z,2.70
2018-07-16T12:49:56.621Z,2.60
2018-07-16T12:52:33.456Z,2.60
2018-07-16T12:55:08.225Z,2.43
2018-07-16T12:57:42.830Z,2.80
2018-07-16T13:00:17.459Z,2.67
2018-07-16T13:02:52.483Z,2.30
2018-07-16T13:05:27.295Z,6.30
2018-07-16T13:08:01.956Z,3.17
2018-07-16T13:10:37.641Z,2.63
2018-07-16T13:13:12.765Z,2.30
2018-07-16T13:15:47.559Z,2.00
2018-07-16T13:18:22.263Z,2.73
2018-07-16T13:20:57.075Z,2.80
2018-07-16T13:23:31.678Z,2.23
2018-07-16T13:26:06.405Z,2.37
2018-07-16T13:28:41.304Z,3.30
2018-07-16T13:31:16.151Z,3.20
2018-07-16T13:33:50.825Z,3.37
2018-07-16T13:36:25.707Z,3.33
2018-07-16T13:39:00.386Z,2.90
2018-07-16T13:41:35.744Z,2.80
2018-07-16T13:44:10.183Z,2.83
2018-07-16T13:46:44.877Z,2.70
2018-07-16T13:49:19.494Z,2.43
2018-07-16T13:51:54.161Z,2.67
2018-07-16T13:54:28.882Z,2.57
2018-07-16T13:57:03.584Z,1.97
2018-07-16T13:59:38.332Z,2.40
2018-07-16T14:02:13.528Z,3.03
2018-07-16T14:04:48.045Z,2.73
2018-07-16T14:07:22.422Z,2.73
2018-07-16T14:09:57.120Z,3.03
2018-07-16T14:12:31.868Z,3.17
2018-07-16T14:15:06.889Z,2.37
2018-07-16T14:17:41.345Z,2.77
2018-07-16T14:20:16.307Z,2.33
2018-07-16T14:22:51.049Z,2.50
2018-07-16T14:25:25.792Z,2.97
2018-07-16T14:28:00.606Z,2.40
2018-07-16T14:30:35.253Z,2.40
2018-07-16T14:33:10.214Z,1.80
2018-07-16T14:35:45.035Z,2.23
2018-07-16T14:38:19.487Z,2.20
2018-07-16T14:40:54.311Z,2.70
2018-07-16T14:43:29.090Z,2.90
2018-07-16T14:46:03.979Z,2.27
2018-07-16T14:48:38.516Z,3.00
2018-07-16T14:51:13.689Z,2.50
2018-07-16T14:53:48.414Z,2.80
2018-07-16T14:56:23.012Z,2.43
2018-07-16T14:58:58.990Z,2.40
2018-07-16T15:01:33.572Z,2.43
2018-07-16T15:04:08.192Z,2.67
2018-07-16T15:06:42.600Z,2.30
2018-07-16T15:09:17.725Z,2.30
2018-07-16T15:11:52.005Z,2.40
2018-07-16T15:14:26.664Z,3.07
2018-07-16T15:17:01.993Z,3.43
2018-07-16T15:19:36.466Z,3.00
2018-07-16T15:22:10.844Z,2.93
2018-07-16T15:24:46.085Z,2.80
2018-07-16T15:27:20.560Z,2.10
2018-07-16T15:29:55.302Z,2.77
2018-07-16T15:32:29.923Z,3.00
2018-07-16T15:35:04.711Z,2.70
2018-07-16T15:37:39.851Z,2.20
2018-07-16T15:40:14.210Z,2.40
2018-07-16T15:42:48.819Z,2.43
2018-07-16T15:45:24.006Z,2.93
2018-07-16T15:47:58.163Z,3.30
2018-07-16T15:50:33.124Z,3.00
2018-07-16T15:53:08.186Z,2.70
2018-07-16T15:55:42.674Z,2.10
2018-07-16T15:58:17.415Z,3.07
2018-07-16T16:00:52.415Z,5.70
2018-07-16T16:03:26.913Z,5.57
2018-07-16T16:06:01.924Z,5.50
2018-07-16T16:08:36.612Z,5.20
2018-07-16T16:11:11.652Z,4.27
2018-07-16T16:13:46.005Z,4.47
2018-07-16T16:16:22.012Z,4.37
2018-07-16T16:18:56.666Z,4.40
2018-07-16T16:21:31.370Z,3.73
2018-07-16T16:24:05.894Z,4.20
2018-07-16T16:26:40.484Z,4.10
2018-07-16T16:29:15.550Z,3.37
2018-07-16T16:31:49.942Z,3.37
2018-07-16T16:34:24.700Z,3.67
2018-07-16T16:36:59.421Z,4.43
2018-07-16T16:39:34.030Z,3.50
2018-07-16T16:42:08.979Z,3.80
2018-07-16T16:44:43.542Z,2.97
2018-07-16T16:47:18.332Z,3.90
2018-07-16T16:49:53.133Z,3.63
2018-07-16T16:52:27.644Z,3.80
2018-07-16T16:55:02.732Z,4.10
2018-07-16T16:57:37.245Z,3.30
2018-07-16T17:00:11.989Z,3.50
2018-07-16T17:02:46.705Z,3.17
2018-07-16T17:05:21.718Z,3.73
2018-07-16T17:07:56.252Z,3.10
2018-07-16T17:10:30.805Z,3.70
2018-07-16T17:13:05.808Z,3.47
2018-07-16T17:15:40.297Z,3.43
2018-07-16T17:18:15.543Z,4.50
2018-07-16T17:20:53.061Z,4.47
2018-07-16T17:23:27.892Z,4.20
2018-07-16T17:26:03.670Z,4.40
2018-07-16T17:28:38.436Z,3.00
2018-07-16T17:31:13.123Z,3.80
2018-07-16T17:33:48.680Z,3.40
2018-07-16T17:36:23.615Z,3.57
2018-07-16T17:38:58.526Z,4.23
2018-07-16T17:41:33.335Z,3.40
2018-07-16T17:44:08.197Z,5.17
2018-07-16T17:46:43.027Z,4.50
2018-07-16T17:49:17.993Z,4.10
2018-07-16T17:51:59.667Z,3.77
2018-07-16T17:54:35.497Z,3.57
2018-07-16T17:57:10.211Z,4.30
2018-07-16T17:59:45.095Z,4.10
2018-07-16T18:02:19.901Z,4.30
2018-07-16T18:04:54.719Z,4.00
2018-07-16T18:07:29.895Z,4.60
2018-07-16T18:10:04.414Z,3.63
2018-07-16T18:12:39.154Z,3.80
2018-07-16T18:15:14.002Z,4.10
2018-07-16T18:17:48.968Z,3.23
2018-07-16T18:20:24.480Z,4.57
2018-07-16T18:22:59.206Z,3.30
2018-07-16T18:25:33.847Z,3.43
2018-07-16T18:28:09.072Z,3.90
2018-07-16T18:30:43.409Z,4.23
2018-07-16T18:33:18.781Z,3.43
2018-07-16T18:35:55.512Z,3.73
2018-07-16T18:38:31.925Z,3.93
2018-07-16T18:41:07.483Z,3.93
2018-07-16T18:43:43.372Z,3.40
2018-07-16T18:46:19.020Z,3.00
2018-07-16T18:48:54.391Z,4.23
2018-07-16T18:51:30.519Z,3.43
2018-07-16T18:54:06.314Z,4.00
2018-07-16T18:56:41.866Z,3.93
2018-07-16T18:59:17.522Z,3.77
2018-07-16T19:01:54.340Z,3.50
2018-07-16T19:04:31.454Z,3.90
2018-07-16T19:07:07.674Z,3.90
2018-07-16T19:09:44.538Z,3.90
2018-07-16T19:12:20.429Z,3.60
2018-07-16T19:14:56.431Z,3.90
2018-07-16T19:17:32.936Z,4.47
2018-07-16T19:20:08.315Z,4.60
2018-07-16T19:22:45.242Z,4.60
2018-07-16T19:25:22.802Z,4.50
2018-07-16T19:27:59.844Z,4.17
2018-07-16T19:30:36.170Z,4.97
2018-07-16T19:33:12.434Z,4.43
2018-07-16T19:35:49.713Z,5.20
2018-07-16T19:38:27.746Z,6.27
2018-07-16T19:41:05.677Z,5.97
2018-07-16T19:43:42.470Z,5.57
2018-07-16T19:46:20.632Z,6.20
2018-07-16T19:48:58.326Z,5.90
2018-07-16T19:51:34.313Z,6.70
2018-07-16T19:54:11.550Z,6.17
2018-07-16T19:56:48.434Z,6.63
2018-07-16T19:59:26.749Z,5.57
2018-07-16T20:02:03.266Z,7.50
2018-07-16T20:04:39.767Z,6.83
2018-07-16T20:07:16.937Z,7.23
2018-07-16T20:09:53.248Z,7.23
2018-07-16T20:12:34.453Z,7.10
2018-07-16T20:15:15.186Z,6.47
2018-07-16T20:17:50.827Z,5.90
2018-07-16T20:20:26.791Z,6.50
2018-07-16T20:23:03.328Z,6.33
2018-07-16T20:25:38.117Z,6.07
2018-07-16T20:28:12.690Z,6.17
2018-07-16T20:30:47.907Z,6.17
2018-07-16T20:33:23.231Z,6.60
2018-07-16T20:35:57.633Z,6.17
2018-07-16T20:38:32.590Z,6.57
2018-07-16T20:41:06.816Z,6.30
2018-07-16T20:43:41.625Z,8.03
2018-07-16T20:46:16.665Z,7.07
2018-07-16T20:48:51.070Z,6.63
2018-07-16T20:51:25.840Z,6.60
2018-07-16T20:54:00.818Z,6.60
2018-07-16T20:56:35.348Z,5.37
2018-07-16T20:59:10.257Z,5.20
2018-07-16T21:01:44.859Z,6.07
2018-07-16T21:04:19.619Z,6.40
2018-07-16T21:06:54.224Z,5.57
2018-07-16T21:09:29.147Z,5.63
2018-07-16T21:12:03.944Z,6.93
2018-07-16T21:14:38.756Z,6.10
2018-07-16T21:17:13.392Z,5.67
2018-07-16T21:19:48.024Z,6.10
2018-07-16T21:22:22.686Z,6.33
2018-07-16T21:24:57.489Z,6.47
2018-07-16T21:27:32.458Z,6.93
2018-07-16T21:30:07.145Z,6.17
2018-07-16T21:32:41.910Z,7.37
2018-07-16T21:35:16.674Z,6.23
2018-07-16T21:37:51.505Z,6.60
2018-07-16T21:40:26.601Z,6.77
2018-07-16T21:43:01.329Z,6.30
2018-07-16T21:45:36.139Z,8.40
2018-07-16T21:48:10.921Z,8.47
2018-07-16T21:50:46.221Z,7.93
2018-07-16T21:53:20.754Z,8.10
2018-07-16T21:55:56.194Z,8.10
2018-07-16T21:58:30.568Z,7.20
2018-07-16T22:01:05.359Z,7.83
2018-07-16T22:03:40.111Z,7.60
2018-07-16T22:06:15.041Z,7.40
2018-07-16T22:08:49.341Z,6.20
2018-07-16T22:11:24.043Z,7.57
2018-07-16T22:13:58.960Z,6.90
2018-07-16T22:16:44.936Z,7.40
2018-07-16T22:19:20.012Z,7.70
2018-07-16T22:21:54.747Z,8.13
2018-07-16T22:24:30.192Z,7.10
2018-07-16T22:27:04.410Z,7.50
2018-07-16T22:29:39.256Z,7.50
2018-07-16T22:32:13.927Z,7.93
2018-07-16T22:34:48.812Z,8.30
2018-07-16T22:37:23.307Z,8.37
2018-07-16T22:39:58.003Z,7.83
2018-07-16T22:42:32.700Z,7.33
2018-07-16T22:45:08.277Z,8.27
2018-07-16T22:47:43.060Z,7.43
2018-07-16T22:50:17.668Z,8.20
2018-07-16T22:52:52.793Z,9.37
2018-07-16T22:55:27.805Z,7.67
2018-07-16T22:58:02.786Z,7.90
2018-07-16T23:00:37.722Z,8.50
2018-07-16T23:03:11.940Z,7.63
2018-07-16T23:05:46.828Z,8.30
2018-07-16T23:08:21.533Z,7.87
2018-07-16T23:10:56.261Z,8.80
2018-07-16T23:13:31.308Z,8.47
2018-07-16T23:16:06.212Z,8.17
2018-07-16T23:18:41.201Z,9.10
2018-07-16T23:21:15.648Z,7.60
2018-07-16T23:23:50.306Z,7.40
2018-07-16T23:26:25.174Z,8.50
2018-07-16T23:29:00.162Z,8.30
2018-07-16T23:31:34.693Z,7.50
2018-07-16T23:34:09.738Z,8.37
2018-07-16T23:36:44.364Z,7.30
2018-07-16T23:39:19.107Z,8.80
2018-07-16T23:41:53.783Z,7.37
2018-07-16T23:44:28.474Z,7.40
2018-07-16T23:47:03.112Z,8.70
2018-07-16T23:49:38.104Z,7.80
2018-07-16T23:52:12.956Z,7.80
2018-07-16T23:54:47.748Z,8.57
2018-07-16T23:57:22.663Z,8.87
2018-07-16T23:59:57.875Z,7.90
